createdAt,value
2023-10-20T00:00:59.773Z,22.90
2023-10-20T00:06:02.744Z,22.90
2023-10-20T00:11:06.145Z,22.80
2023-10-20T00:16:10.939Z,22.80
2023-10-20T00:21:13.903Z,22.70
2023-10-20T00:26:17.101Z,22.80
2023-10-20T00:31:21.434Z,22.70
2023-10-20T00:36:24.427Z,22.70
2023-10-20T00:41:27.382Z,22.70
2023-10-20T00:46:32.193Z,22.70
2023-10-20T00:51:35.179Z,22.70
2023-10-20T00:56:38.119Z,22.70
2023-10-20T01:01:42.405Z,22.70
2023-10-20T01:06:45.449Z,22.60
2023-10-20T01:11:48.366Z,22.60
2023-10-20T01:16:52.671Z,22.60
2023-10-20T01:21:55.785Z,22.50
2023-10-20T01:27:00.118Z,22.50
2023-10-20T01:32:03.991Z,22.50
2023-10-20T01:37:08.162Z,22.50
2023-10-20T01:42:12.520Z,22.40
2023-10-20T01:47:15.793Z,22.40
2023-10-20T01:52:18.767Z,22.40
2023-10-20T01:57:23.042Z,22.30
2023-10-20T02:02:26.247Z,22.40
2023-10-20T02:07:29.179Z,22.30
2023-10-20T02:12:33.456Z,22.30
2023-10-20T02:17:36.773Z,22.30
2023-10-20T02:22:40.213Z,22.30
2023-10-20T02:27:45.413Z,22.20
2023-10-20T02:32:48.508Z,22.30
2023-10-20T02:37:51.534Z,22.30
2023-10-20T02:42:55.799Z,22.30
2023-10-20T02:47:58.877Z,22.30
2023-10-20T02:53:02.150Z,22.30
2023-10-20T02:58:06.596Z,22.30
2023-10-20T03:03:10.651Z,22.30
2023-10-20T03:08:13.776Z,22.20
2023-10-20T03:13:20.904Z,22.20
2023-10-20T03:18:24.737Z,22.20
2023-10-20T03:23:27.840Z,22.20
2023-10-20T03:28:32.119Z,22.20
2023-10-20T03:33:35.298Z,22.20
2023-10-20T03:38:39.122Z,22.20
2023-10-20T03:43:43.587Z,22.20
2023-10-20T03:48:46.797Z,22.10
2023-10-20T03:53:52.021Z,22.10
2023-10-20T03:58:57.446Z,22.10
2023-10-20T04:04:00.360Z,22.10
2023-10-20T04:09:03.982Z,22.10
2023-10-20T04:14:08.705Z,22.10
2023-10-20T04:19:14.078Z,22.00
2023-10-20T04:24:21.157Z,22.10
2023-10-20T04:29:36.054Z,22.00
2023-10-20T04:35:01.591Z,22.00
2023-10-20T04:40:22.706Z,22.20
2023-10-20T04:45:53.032Z,22.20
2023-10-20T04:51:18.327Z,22.30
2023-10-20T04:56:38.544Z,22.20
2023-10-20T05:01:44.599Z,22.20
2023-10-20T05:06:56.184Z,22.20
2023-10-20T05:11:59.135Z,22.20
2023-10-20T05:17:05.617Z,22.20
2023-10-20T05:22:09.542Z,22.20
2023-10-20T05:27:13.620Z,22.20
2023-10-20T05:32:18.408Z,22.10
2023-10-20T05:37:22.631Z,22.10
2023-10-20T05:42:25.916Z,22.10
2023-10-20T05:47:30.406Z,22.10
2023-10-20T05:52:35.206Z,22.10
2023-10-20T05:57:38.100Z,22.10
2023-10-20T06:02:42.553Z,22.00
2023-10-20T06:07:45.758Z,22.00
2023-10-20T06:12:48.856Z,22.00
2023-10-20T06:17:53.582Z,22.00
2023-10-20T06:22:56.629Z,22.00
2023-10-20T06:27:59.604Z,21.90
2023-10-20T06:33:18.053Z,21.90
2023-10-20T06:38:31.542Z,21.90
2023-10-20T06:43:35.541Z,21.90
2023-10-20T06:48:39.816Z,22.00
2023-10-20T06:53:42.887Z,22.10
2023-10-20T06:58:46.259Z,22.10
2023-10-20T07:03:50.601Z,22.10
2023-10-20T07:08:53.868Z,22.10
2023-10-20T07:13:57.097Z,22.20
2023-10-20T07:19:01.494Z,22.20
2023-10-20T07:24:05.201Z,22.10
2023-10-20T07:29:08.398Z,22.10
2023-10-20T07:34:12.885Z,22.10
2023-10-20T07:39:18.384Z,22.10
2023-10-20T07:44:21.387Z,22.10
2023-10-20T07:49:25.675Z,22.10
2023-10-20T07:54:28.627Z,22.10
2023-10-20T07:59:31.682Z,22.10
2023-10-20T08:04:37.953Z,22.10
2023-10-20T08:09:41.546Z,22.10
2023-10-20T08:14:44.510Z,22.00
2023-10-20T08:19:48.862Z,22.10
2023-10-20T08:24:52.302Z,22.10
2023-10-20T08:29:58.076Z,22.10
2023-10-20T08:35:02.471Z,22.10
2023-10-20T08:40:11.625Z,22.10
2023-10-20T08:45:16.064Z,22.10
2023-10-20T08:50:22.063Z,22.00
2023-10-20T08:55:25.067Z,22.10
2023-10-20T09:00:30.863Z,22.10
2023-10-20T09:05:36.987Z,22.10
2023-10-20T09:10:43.605Z,22.20
2023-10-20T09:15:46.754Z,22.20
2023-10-20T09:20:51.103Z,22.20
2023-10-20T09:25:54.140Z,22.20
2023-10-20T09:31:00.277Z,22.20
2023-10-20T09:36:05.232Z,22.00
2023-10-20T09:41:13.760Z,22.20
2023-10-20T09:46:30.638Z,22.20
2023-10-20T09:51:35.658Z,22.20
2023-10-20T09:56:39.222Z,22.20
2023-10-20T10:01:45.505Z,22.20
2023-10-20T10:06:51.097Z,22.20
2023-10-20T10:11:57.146Z,22.20
2023-10-20T10:17:02.517Z,22.20
2023-10-20T10:22:06.880Z,22.10
2023-10-20T10:32:20.386Z,22.10
2023-10-20T10:37:35.783Z,22.10
2023-10-20T10:42:43.996Z,22.10
2023-10-20T10:47:47.572Z,22.10
2023-10-20T10:52:52.946Z,22.10
2023-10-20T11:03:03.577Z,22.10
2023-10-20T11:08:14.794Z,22.10
2023-10-20T11:13:23.832Z,22.10
2023-10-20T11:18:27.935Z,22.10
2023-10-20T11:23:35.473Z,22.00
2023-10-20T11:28:39.243Z,22.00
2023-10-20T11:33:43.820Z,22.00
2023-10-20T11:38:48.195Z,22.00
2023-10-20T11:43:51.165Z,22.00
2023-10-20T11:48:54.442Z,22.00
2023-10-20T11:53:59.842Z,22.00
2023-10-20T11:59:03.023Z,21.90
2023-10-20T12:04:07.231Z,21.90
2023-10-20T12:09:14.597Z,21.90
2023-10-20T12:14:19.099Z,21.90
2023-10-20T12:19:22.163Z,21.90
2023-10-20T12:24:26.632Z,21.90
2023-10-20T12:29:29.787Z,22.00
2023-10-20T12:34:33.586Z,22.00
2023-10-20T12:39:40.851Z,22.10
2023-10-20T12:44:44.679Z,22.10
2023-10-20T12:49:47.762Z,22.10
2023-10-20T12:54:53.772Z,22.10
2023-10-20T12:59:56.934Z,22.10
2023-10-20T13:05:01.029Z,22.10
2023-10-20T13:10:06.673Z,22.10
2023-10-20T13:15:11.445Z,22.10
2023-10-20T13:20:14.860Z,22.10
2023-10-20T13:25:20.564Z,22.20
2023-10-20T13:30:23.586Z,22.30
2023-10-20T13:35:26.670Z,22.40
2023-10-20T13:40:31.528Z,22.50
2023-10-20T13:45:34.545Z,22.60
2023-10-20T13:50:41.203Z,22.70
2023-10-20T13:55:47.053Z,22.80
2023-10-20T14:00:52.301Z,22.80
2023-10-20T14:05:57.285Z,22.80
2023-10-20T14:11:05.244Z,22.80
2023-10-20T14:16:08.505Z,22.90
2023-10-20T14:21:11.494Z,22.80
2023-10-20T14:26:15.872Z,22.80
2023-10-20T14:31:18.991Z,22.80
2023-10-20T14:36:22.082Z,22.90
2023-10-20T14:41:26.464Z,23.00
2023-10-20T14:46:29.480Z,23.00
2023-10-20T14:51:32.599Z,23.10
2023-10-20T14:56:37.364Z,23.10
2023-10-20T15:01:40.308Z,23.10
2023-10-20T15:06:43.880Z,23.10
2023-10-20T15:11:48.274Z,23.10
2023-10-20T15:16:51.258Z,23.00
2023-10-20T15:21:54.529Z,23.00
2023-10-20T15:26:58.858Z,22.90
2023-10-20T15:32:01.834Z,22.90
2023-10-20T15:37:04.796Z,23.00
2023-10-20T15:42:09.269Z,23.00
2023-10-20T15:47:12.225Z,23.00
2023-10-20T15:52:15.478Z,23.00
2023-10-20T15:57:20.094Z,23.00
2023-10-20T16:02:23.048Z,22.90
2023-10-20T16:07:26.206Z,22.90
2023-10-20T16:12:30.541Z,22.90
2023-10-20T16:17:33.482Z,22.80
2023-10-20T16:22:36.442Z,22.90
2023-10-20T16:27:40.701Z,23.00
2023-10-20T16:32:43.720Z,23.10
2023-10-20T16:37:46.709Z,23.10
2023-10-20T16:42:51.373Z,23.10
2023-10-20T16:47:54.449Z,23.10
2023-10-20T16:52:58.462Z,23.10
2023-10-20T16:58:02.717Z,23.00
2023-10-20T17:03:07.021Z,23.00
2023-10-20T17:08:10.279Z,23.00
2023-10-20T17:13:14.592Z,22.90
2023-10-20T17:18:17.638Z,22.90
2023-10-20T17:23:20.725Z,22.90
2023-10-20T17:28:25.003Z,22.90
2023-10-20T17:33:28.326Z,22.90
2023-10-20T17:38:31.552Z,22.90
2023-10-20T17:43:37.342Z,22.90
2023-10-20T17:48:41.263Z,22.90
2023-10-20T17:53:44.651Z,22.90
2023-10-20T17:58:49.002Z,22.90
2023-10-20T18:03:52.013Z,22.90
2023-10-20T18:08:55.033Z,22.90
2023-10-20T18:13:59.601Z,22.90
2023-10-20T18:19:03.544Z,22.90
2023-10-20T18:24:08.805Z,22.80
2023-10-20T18:29:13.400Z,22.90
2023-10-20T18:34:16.350Z,22.90
2023-10-20T18:39:19.310Z,23.10
2023-10-20T18:44:23.699Z,23.20
2023-10-20T18:49:26.763Z,23.30
2023-10-20T18:54:29.704Z,23.40
2023-10-20T18:59:34.129Z,23.40
2023-10-20T19:04:38.382Z,23.40
2023-10-20T19:09:43.535Z,23.40
2023-10-20T19:14:48.231Z,23.40
2023-10-20T19:19:51.223Z,23.40
2023-10-20T19:24:54.162Z,23.30
2023-10-20T19:29:58.537Z,23.30
2023-10-20T19:35:01.663Z,23.30
2023-10-20T19:40:05.128Z,23.30
2023-10-20T19:45:11.663Z,23.30
2023-10-20T19:50:15.004Z,23.30
2023-10-20T19:55:18.263Z,23.30
2023-10-20T20:00:22.601Z,23.30
2023-10-20T20:05:28.720Z,23.30
2023-10-20T20:10:31.726Z,23.30
2023-10-20T20:15:36.001Z,23.20
2023-10-20T20:20:39.306Z,23.30
2023-10-20T20:25:42.321Z,23.40
2023-10-20T20:30:46.741Z,23.50
2023-10-20T20:35:49.720Z,23.60
2023-10-20T20:40:53.227Z,23.60
2023-10-20T20:45:57.808Z,23.60
2023-10-20T20:51:01.064Z,23.60
2023-10-20T20:56:04.564Z,23.60
2023-10-20T21:01:12.590Z,23.60
2023-10-20T21:06:15.658Z,23.60
2023-10-20T21:11:18.685Z,23.60
2023-10-20T21:16:23.094Z,23.60
2023-10-20T21:21:27.458Z,23.50
2023-10-20T21:26:31.899Z,23.50
2023-10-20T21:31:36.231Z,23.40
2023-10-20T21:36:39.257Z,23.40
2023-10-20T21:41:42.347Z,23.30
2023-10-20T21:46:46.702Z,23.30
2023-10-20T21:51:51.588Z,23.30
2023-10-20T21:56:54.555Z,23.30
2023-10-20T22:02:08.987Z,23.20
2023-10-20T22:07:13.241Z,23.20
2023-10-20T22:12:16.286Z,23.10
2023-10-20T22:17:20.554Z,23.10
2023-10-20T22:22:23.540Z,23.10
2023-10-20T22:27:28.260Z,23.10
2023-10-20T22:32:32.622Z,23.00
2023-10-20T22:37:36.428Z,22.90
2023-10-20T22:42:39.372Z,22.80
2023-10-20T22:47:43.702Z,22.80
2023-10-20T22:52:48.086Z,22.70
2023-10-20T22:57:51.342Z,22.70
2023-10-20T23:02:55.781Z,22.70
2023-10-20T23:07:58.895Z,22.70
2023-10-20T23:13:01.826Z,22.60
2023-10-20T23:18:06.517Z,22.50
2023-10-20T23:23:09.531Z,22.60
2023-10-20T23:28:12.742Z,22.50
2023-10-20T23:33:17.289Z,22.50
2023-10-20T23:38:20.388Z,22.40
2023-10-20T23:43:23.507Z,22.40
2023-10-20T23:48:27.815Z,22.40
2023-10-20T23:53:30.758Z,22.40
2023-10-20T23:58:33.735Z,22.40
